• Join FlightAware (Why Join?)
  • Login
  • US Flag 
08:28PM EDT


 

Airport Tracker/Info


-or-


 

Live Flight TrackerFlight Track Log ✈ RPA3436 ✈ 29-Jun-2013 ✈ KIND - KDCA

Flight Track Log - Related Links

Times and Time Zones

All times are in EDT time to prevent confusion due to time zone crossing. See the RPA3436 flight status page for this flight to view local times or setup timezone preferences in your user account.

Time Position Orientation Groundspeed Altitude Reporting Facility
EDT Latitude Longitude Course Direction KTS MPH feet Rate Location/Type
07:42AM 39.7000 -86.3000 74° East 148 170 1,500  Level Indianapolis TRACON
07:43AM 39.6500 -86.3167 194° South 216 249 3,200 1,320 Climbing Indianapolis TRACON
07:44AM 39.6494 -86.2758 91° East 219 252 3,700 2,160 Climbing Indianapolis Center
07:45AM 39.7817 -85.8003 83° East  Level FlightAware Approximate
07:45AM 39.6783 -86.1650 71° East 272 313 6,700  Level Indianapolis Center
07:46AM 39.7995 -85.6788 79° East  Level FlightAware Approximate
07:46AM 39.7003 -86.0647 74° East 287 330 9,300  Level Indianapolis Center
07:47AM 39.8187 -85.5577 74° East  Level FlightAware Approximate
07:47AM 39.7228 -85.9567 75° East 308 354 11,300  Level Indianapolis Center
07:48AM 39.7281 -85.8319 87° East 341 392 13,400 2,100 Climbing Indianapolis Center
07:49AM 39.7347 -85.7053 86° East 351 404 15,600 1,860 Climbing Indianapolis Center
07:50AM 39.7411 -85.5733 86° East 366 421 17,300 1,800 Climbing Indianapolis Center
07:51AM 39.7481 -85.4375 86° East 375 432 19,400 1,860 Climbing Indianapolis Center
07:52AM 39.7539 -85.2981 87° East 384 442 21,100 1,560 Climbing Indianapolis Center
07:53AM 39.7608 -85.1569 86° East 391 450 22,600 1,500 Climbing Indianapolis Center
07:54AM 39.7675 -85.0028 87° East 398 458 24,200 1,440 Climbing Indianapolis Center
07:55AM 39.7736 -84.8550 87° East 404 465 25,600 1,320 Climbing Indianapolis Center
07:56AM 39.7803 -84.7058 87° East 409 471 27,000 1,260 Climbing Indianapolis Center
07:57AM 39.7861 -84.5531 87° East 419 482 28,200 960 Climbing Indianapolis Center
07:58AM 39.7925 -84.3981 87° East 425 489 29,000 360 Climbing Indianapolis Center
07:59AM 39.7981 -84.2414 87° East 431 496 29,000 120 Level Indianapolis Center
08:00AM 39.8039 -84.0842 87° East 431 496 29,300 660 Climbing Indianapolis Center
08:01AM 39.8103 -83.9233 87° East 440 506 30,400 780 Climbing Indianapolis Center
08:02AM 39.8161 -83.7325 88° East 449 517 30,900 240 Climbing Indianapolis Center
08:03AM 39.8200 -83.6075 88° East 425 489 31,000  Climbing Indianapolis Center
08:04AM 39.8256 -83.4553 87° East 416 479 31,000  Level Indianapolis Center
08:05AM 39.8300 -83.2886 88° East 419 482 31,000  Level Indianapolis Center
08:06AM 39.8342 -83.1364 88° East 418 481 31,000  Level Indianapolis Center
08:07AM 39.8203 -82.9842 97° East 421 484 31,000  Level Indianapolis Center
08:08AM 39.7975 -82.8347 101° East 418 481 31,000  Level Indianapolis Center
08:09AM 39.7739 -82.6833 101° East 423 487 31,000  Level Indianapolis Center
08:10AM 39.7511 -82.5322 101° East 423 487 31,000  Level Indianapolis Center
08:11AM 39.7269 -82.3819 102° East 423 487 31,000  Level Indianapolis Center
08:12AM 39.7031 -82.2317 102° East 421 484 31,000  Level Indianapolis Center
08:13AM 39.6778 -82.0753 102° East 418 481 31,000  Level Indianapolis Center
08:14AM 39.6542 -81.9250 101° East 423 487 31,000  Level Indianapolis Center
08:15AM 39.6297 -81.7761 102° East 421 484 31,000  Level Indianapolis Center
08:16AM 39.6050 -81.6264 102° East 422 486 31,000  Level Indianapolis Center
08:17AM 39.5797 -81.4767 102° East 423 487 31,000  Level Indianapolis Center
08:18AM 39.5553 -81.3269 102° East 423 487 31,000  Level Indianapolis Center
08:19AM 39.5311 -81.1753 102° East 426 490 31,000  Level Indianapolis Center
08:20AM 39.5000 -80.9942 102° East 427 491 31,000  Level Indianapolis Center
08:21AM 39.4739 -80.8444 103° East 427 491 31,000  Level Indianapolis Center
08:22AM 39.4469 -80.6933 103° East 428 493 31,000  Level Indianapolis Center
08:23AM 39.4211 -80.5417 102° East 431 496 31,000  Level Indianapolis Center
08:24AM 39.3950 -80.3903 103° East 431 496 31,000  Level Indianapolis Center
08:25AM 39.3789 -80.2717 100° East 427 491 31,000  Level Washington Center
08:26AM 39.3514 -80.1197 103° East 427 491 31,000  Level Washington Center
08:27AM 39.3217 -79.9675 104° East 433 498 31,000  Level Washington Center
08:28AM 39.2958 -79.8103 102° East 440 506 31,000  Level Washington Center
08:29AM 39.2847 -79.6489 95° East 440 506 31,000  Level Washington Center
08:30AM 39.2714 -79.4925 96° East 445 512 31,000 -780 Level Washington Center
08:31AM 39.2578 -79.3283 96° East 451 519 29,500 -1,860 Descending Washington Center
08:32AM 39.2361 -79.1450 99° East 464 534 27,300 -1,680 Descending Washington Center
08:33AM 39.2242 -78.9836 95° East 464 534 26,100 -1,680 Descending Washington Center
08:34AM 39.2097 -78.8275 97° East 453 521 24,100 -2,340 Descending Washington Center
08:35AM 39.1950 -78.6742 97° East 445 512 21,600 -2,460 Descending Washington Center
08:36AM 39.1800 -78.5264 97° East 429 494 19,100 -2,280 Descending Washington Center
08:37AM 39.1647 -78.3783 98° East 416 479 17,000 -1,080 Descending Washington Center
08:38AM 39.1325 -78.2353 106° East 411 473 17,000 -60 Level Washington Center
08:39AM 39.0939 -78.0894 109° East 422 486 16,900 -1,140 Descending Washington Center
08:40AM 39.0572 -77.9467 108° East 422 486 14,700 -2,280 Descending Washington Center
08:41AM 39.0264 -77.8147 107° East 405 466 12,500 -2,040 Descending Washington Center
08:42AM 38.9950 -77.7042 110° East 379 436 10,800 -1,740 Descending Washington Center
08:43AM 38.9636 -77.5886 109° East 328 377 9,000 -1,260 Descending Washington Center
08:45AM 38.9667 -77.4500 88° East 284 327 8,000 -780 Descending Potomac TRACON
08:46AM 39.0167 -77.3833 46° Northeast 266 306 7,200 -660 Descending Potomac TRACON
08:47AM 39.0500 -77.3333 49° Northeast 221 254 6,800 -840 Descending Potomac TRACON
08:48AM 39.0667 -77.2667 72° East 204 235 5,600 -1,320 Descending Potomac TRACON
08:48AM 39.0333 -77.2167 131° Southeast 190 219 4,400 -1,200 Descending Potomac TRACON
08:49AM 38.9833 -77.1833 153° Southeast 188 216 3,400 -1,020 Descending Potomac TRACON